Portada
METAR-TAF:

METAR-TAF

Aeroports :

Orsk, Rússia

latitud: 51-04-18N, longitud: 058-35-48E, altitud: 277 m

Observació

L'informe es va fer fa 1 hora i 17 minuts, a les 15:00 UTC
Vent 2 kt del Sud
Temperatura -6°C
Humitat 86%
Pressió 1023 hPa
Visibilitat: 0150 m
boira gebradora

METAR: UWOR 101500Z 17001MPS 0650 0150NE R25/0450N FZFG VV002 M06/M08 Q1023 R25/190055 NOSIG RMK QBB060 QFE743/0991

Hora: 21:17 (16:17 UTC)

Pronòstic

L'informe es va fer fa 2 hores i 28 minuts, a les 13:49 UTC
Pronòstic vàlid del 10 a les 15 UTC al 10 a les 24 UTC
Vent 6 kt del Est
Visibilitat: 0200 m
a una alçada de 100 ft
boira gebradora
Temporalment
l' 10 a les 15 UTC al 10 a les 24 UTC
Vent 2 kt amb direcció variable
Visibilitat: 0800 m
a una alçada de 300 ft
boira gebradora

TAF: UWOR 101349Z 1015/1024 09003MPS 0200 FZFG VV001 TXM06/1015Z TNM09/1023Z TEMPO 1015/1024 VRB01MPS 0800 FZFG VV003

Observacions i pronòstics meteorològics de més de 4000 aeroports (METAR i TAF).

Les estacions disponibles són els punts grocs i vermells al mapa.

Posi el ratolí al punt desitjat per veure el nom de l'estació.

Feu clic per veure les observacions i els pronòstics meteorològics.

Per canviar el mapa: feu clic els botons verds amb una creu de color negre per apropar; al botó verd amb un guió per allunyar la imatge; o en les fletxes verdes per a mapes adjacents.


METAR-TAF: